Peterson, Utah
Current Conditions -  °F | °C
As of 12:58 PM on Friday 19 Dec 2014 (Local Time) from KHIF Reporting Station
Broken Clouds Broken Clouds  
Wind Chill: 34°   Ceiling: 7500
Heat Index: 41°   Visibility: 10mi
Dew Point: 26°   Wind: 13mph
Humidity: 56%   Direction: 180°S
Pressure: 30.14"   Gusts: NA
Location:  41.0884°N, 111.576°W
Report Text: KHIF 191958Z 18011KT 10SM BKN075 05/M03 A3014 RMK AO2A SLP207 T00491033
Loading
Personal Weather Stations






























Interactive Weather Map New forecast layout! Learn more

10-Day Weather Forecast

Advertisements
Track Severe Weather on mobile